Terminal Aerodrome Forecast
Issued by NWS

Home | Current Version | Previous Version | Text Only | Print | Product List | Glossary Off
Versions: 1 2 3 4 5 6 7 8 9 10 11 12 13 14 15

049
FTUS43 KGRB 062158 AAA
TAFMTW
TAF AMD
KMTW 062158Z 0622/0718 24008KT P6SM SCT015 OVC110
     FM070300 20006KT P6SM BKN014 OVC100
     FM070700 20008KT P6SM BKN100
     FM071200 22011G15KT P6SM BKN060 OVC090=

USA.gov is the U.S. government's official web portal to all federal, state and local government web resources and services.